Time;durP1;ratioP1;P1;durP2;ratioP2;P2;SDS_P1;SDS_P2;PMS_P1;PMS_P2;Temp;Humidity;BMP_temperature;BMP_pressure;BME280_temperature;BME280_humidity;BME280_pressure;Samples;Min_cycle;Max_cycle;Signal;HPM_P1;HPM_P2
2022/01/15 00:02:14;;;;;;;10.87;7.37;;;;;;;;;;4910095;29;20261;-89
2022/01/15 00:04:42;;;;;;;13.20;7.63;;;;;;;;;;4915800;29;20221;-90
2022/01/15 00:07:10;;;;;;;14.73;7.97;;;;;;;;;;4915591;29;20245;-89
2022/01/15 00:09:39;;;;;;;12.67;7.57;;;;;;;;;;4910416;29;20294;-89
2022/01/15 00:12:06;;;;;;;13.50;7.40;;;;;;;;;;4908211;29;20219;-89
2022/01/15 00:14:38;;;;;;;12.90;7.60;;;;;;;;;;4916016;29;20289;-89
2022/01/15 00:17:07;;;;;;;15.17;8.80;;;;;;;;;;4912312;29;20226;-89
2022/01/15 00:19:41;;;;;;;15.00;9.37;;;;;;;;;;4910471;29;20213;-89
2022/01/15 00:22:11;;;;;;;17.33;9.67;;;;;;;;;;4915667;29;20217;-89
2022/01/15 00:24:38;;;;;;;12.60;7.73;;;;;;;;;;4915807;29;20215;-92
2022/01/15 00:27:06;;;;;;;11.70;7.60;;;;;;;;;;4909167;29;20289;-90
2022/01/15 00:29:34;;;;;;;15.23;8.00;;;;;;;;;;4918418;29;20234;-90
2022/01/15 00:32:01;;;;;;;12.30;8.07;;;;;;;;;;4919684;29;20215;-89
2022/01/15 00:34:29;;;;;;;13.40;8.13;;;;;;;;;;4918052;29;20207;-91
2022/01/15 00:36:56;;;;;;;10.07;6.70;;;;;;;;;;4909643;29;20210;-89
2022/01/15 00:39:25;;;;;;;11.03;6.97;;;;;;;;;;4918892;29;20285;-90
2022/01/15 00:41:53;;;;;;;17.50;8.67;;;;;;;;;;4919132;29;20266;-90
2022/01/15 00:44:20;;;;;;;12.40;7.67;;;;;;;;;;4914672;29;20238;-89
2022/01/15 00:46:47;;;;;;;13.77;7.60;;;;;;;;;;4918536;29;20203;-89
2022/01/15 00:49:15;;;;;;;13.47;8.17;;;;;;;;;;4918992;29;20261;-89
2022/01/15 00:51:42;;;;;;;14.83;8.87;;;;;;;;;;4916023;29;20265;-90
2022/01/15 00:54:09;;;;;;;11.37;7.23;;;;;;;;;;4915155;29;20219;-89
2022/01/15 00:56:38;;;;;;;14.50;8.10;;;;;;;;;;4918592;29;20203;-90
2022/01/15 00:59:05;;;;;;;12.13;7.93;;;;;;;;;;4918727;29;20257;-89
2022/01/15 01:01:34;;;;;;;12.53;6.87;;;;;;;;;;4914926;29;20262;-89
2022/01/15 01:04:01;;;;;;;10.40;7.60;;;;;;;;;;4913169;29;20664;-89
2022/01/15 01:06:28;;;;;;;10.27;7.83;;;;;;;;;;4918534;29;20211;-89
2022/01/15 01:08:55;;;;;;;10.23;7.27;;;;;;;;;;4918598;29;20775;-89
2022/01/15 01:11:31;;;;;;;12.87;8.00;;;;;;;;;;4913435;29;20590;-90
2022/01/15 01:24:55;;;;;;;20.40;10.37;;;;;;;;;;4917281;29;20202;-90
2022/01/15 01:27:27;;;;;;;13.43;8.23;;;;;;;;;;4915135;29;20287;-90
2022/01/15 01:30:11;;;;;;;14.43;9.07;;;;;;;;;;4911297;29;20235;-89
2022/01/15 01:32:47;;;;;;;16.07;8.27;;;;;;;;;;4918378;29;20293;-89
2022/01/15 01:35:19;;;;;;;14.27;8.43;;;;;;;;;;4915093;29;20731;-90
2022/01/15 01:37:51;;;;;;;13.23;7.40;;;;;;;;;;4915051;29;20226;-89
2022/01/15 01:40:22;;;;;;;13.90;8.73;;;;;;;;;;4910905;29;20219;-90
2022/01/15 01:43:03;;;;;;;13.70;8.57;;;;;;;;;;4918430;29;20214;-89
2022/01/15 01:45:31;;;;;;;9.57;7.57;;;;;;;;;;4915132;29;20266;-89
2022/01/15 01:47:59;;;;;;;14.73;8.37;;;;;;;;;;4915537;29;20222;-89
2022/01/15 01:50:27;;;;;;;15.43;8.90;;;;;;;;;;4917634;29;20222;-89
2022/01/15 01:52:55;;;;;;;13.00;8.23;;;;;;;;;;4918253;29;20215;-89
2022/01/15 01:55:23;;;;;;;12.90;7.77;;;;;;;;;;4915852;29;20215;-90
2022/01/15 01:57:51;;;;;;;12.70;8.23;;;;;;;;;;4916321;29;20675;-89
2022/01/15 02:00:20;;;;;;;13.27;8.23;;;;;;;;;;4916072;29;20203;-90
2022/01/15 02:02:49;;;;;;;13.77;8.30;;;;;;;;;;4906157;29;20276;-90
2022/01/15 02:05:16;;;;;;;11.30;7.23;;;;;;;;;;4910085;29;20652;-89
2022/01/15 02:07:44;;;;;;;11.63;7.33;;;;;;;;;;4917712;29;20772;-90
2022/01/15 02:10:16;;;;;;;12.57;7.77;;;;;;;;;;4908628;29;20317;-90
2022/01/15 02:12:44;;;;;;;13.30;7.40;;;;;;;;;;4907176;29;20687;-90
2022/01/15 02:15:13;;;;;;;12.17;8.03;;;;;;;;;;4917640;29;20282;-89
2022/01/15 02:17:40;;;;;;;11.17;7.80;;;;;;;;;;4915987;29;20321;-89
2022/01/15 02:20:23;;;;;;;14.20;7.23;;;;;;;;;;4917085;29;20210;-89
2022/01/15 02:25:43;;;;;;;14.60;8.47;;;;;;;;;;4917253;29;20327;-90
2022/01/15 02:28:10;;;;;;;12.27;8.57;;;;;;;;;;4914661;29;20234;-90
2022/01/15 02:30:38;;;;;;;12.23;7.53;;;;;;;;;;4916383;29;20272;-90
2022/01/15 02:33:06;;;;;;;12.23;7.90;;;;;;;;;;4917028;29;20214;-90
2022/01/15 02:35:35;;;;;;;10.43;6.83;;;;;;;;;;4912402;29;20215;-90
2022/01/15 02:38:03;;;;;;;13.10;8.07;;;;;;;;;;4904287;29;20283;-90
2022/01/15 02:40:32;;;;;;;15.03;10.40;;;;;;;;;;4917019;29;20214;-90
2022/01/15 02:43:03;;;;;;;14.90;8.53;;;;;;;;;;4916928;29;20206;-90
2022/01/15 02:45:32;;;;;;;14.10;9.03;;;;;;;;;;4911956;29;20207;-92
2022/01/15 02:48:02;;;;;;;16.63;9.40;;;;;;;;;;4914298;29;20235;-90
2022/01/15 02:50:30;;;;;;;12.20;7.93;;;;;;;;;;4915934;29;20223;-89
2022/01/15 02:53:01;;;;;;;15.80;9.40;;;;;;;;;;4916929;29;20210;-90
2022/01/15 02:55:28;;;;;;;11.47;8.00;;;;;;;;;;4912303;29;20266;-91
2022/01/15 02:57:56;;;;;;;12.60;8.03;;;;;;;;;;4915874;29;20310;-90
2022/01/15 03:00:23;;;;;;;13.83;7.43;;;;;;;;;;4916290;29;20255;-89
2022/01/15 03:02:51;;;;;;;11.20;7.53;;;;;;;;;;4912854;29;20212;-90
2022/01/15 03:05:20;;;;;;;10.53;7.80;;;;;;;;;;4902931;29;20203;-90
2022/01/15 03:07:47;;;;;;;12.93;7.87;;;;;;;;;;4915646;29;20677;-90
2022/01/15 03:10:16;;;;;;;13.30;9.17;;;;;;;;;;4908500;29;20227;-90
2022/01/15 03:12:43;;;;;;;12.33;8.70;;;;;;;;;;4914634;29;20238;-90
2022/01/15 03:15:17;;;;;;;15.07;8.43;;;;;;;;;;4915053;29;20614;-91
2022/01/15 03:17:44;;;;;;;12.73;8.10;;;;;;;;;;4916251;29;20316;-90
2022/01/15 03:20:13;;;;;;;10.77;7.50;;;;;;;;;;4916496;29;20228;-90
2022/01/15 03:22:41;;;;;;;12.53;7.33;;;;;;;;;;4909915;29;20208;-89
2022/01/15 03:25:09;;;;;;;14.93;8.87;;;;;;;;;;4915072;29;20266;-89
2022/01/15 03:27:38;;;;;;;15.97;8.57;;;;;;;;;;4916260;29;20290;-90
2022/01/15 03:30:06;;;;;;;16.80;8.27;;;;;;;;;;4916432;29;20223;-90
2022/01/15 03:32:34;;;;;;;12.30;8.23;;;;;;;;;;4908561;29;20210;-90
2022/01/15 03:35:01;;;;;;;11.07;7.30;;;;;;;;;;4915510;29;20664;-90
2022/01/15 03:37:29;;;;;;;13.13;7.57;;;;;;;;;;4915659;29;20723;-89
2022/01/15 03:39:56;;;;;;;12.17;7.20;;;;;;;;;;4916156;29;20214;-91
2022/01/15 03:42:24;;;;;;;11.93;8.13;;;;;;;;;;4915183;29;20210;-90
2022/01/15 03:44:53;;;;;;;14.67;8.53;;;;;;;;;;4915939;29;20575;-90
2022/01/15 03:47:20;;;;;;;14.30;8.60;;;;;;;;;;4916093;29;20294;-90
2022/01/15 03:49:47;;;;;;;15.03;9.03;;;;;;;;;;4916482;29;20230;-90
2022/01/15 03:52:15;;;;;;;15.67;8.83;;;;;;;;;;4910450;29;20270;-90
2022/01/15 03:54:42;;;;;;;13.37;8.10;;;;;;;;;;4915952;29;20203;-89
2022/01/15 03:57:10;;;;;;;11.87;8.00;;;;;;;;;;4915979;29;20680;-89
2022/01/15 03:59:37;;;;;;;14.60;9.03;;;;;;;;;;4909826;29;20239;-90
2022/01/15 04:02:06;;;;;;;13.93;8.63;;;;;;;;;;4915234;29;20203;-91
2022/01/15 04:04:33;;;;;;;12.07;7.27;;;;;;;;;;4920075;29;20257;-90
2022/01/15 04:07:01;;;;;;;13.40;8.00;;;;;;;;;;4914790;29;20280;-90
2022/01/15 04:09:28;;;;;;;10.27;7.13;;;;;;;;;;4919456;29;20267;-90
2022/01/15 04:11:55;;;;;;;13.73;7.43;;;;;;;;;;4919261;29;20227;-89
2022/01/15 04:14:23;;;;;;;14.50;7.40;;;;;;;;;;4919966;29;20627;-91
2022/01/15 04:16:50;;;;;;;11.93;8.20;;;;;;;;;;4914163;29;20547;-89
2022/01/15 04:19:19;;;;;;;11.83;7.97;;;;;;;;;;4918964;29;20218;-90
2022/01/15 04:21:46;;;;;;;10.83;7.60;;;;;;;;;;4919056;29;20203;-90
2022/01/15 04:24:13;;;;;;;10.40;7.03;;;;;;;;;;4915273;29;20222;-90
2022/01/15 04:26:41;;;;;;;11.03;7.63;;;;;;;;;;4916280;29;20262;-90
2022/01/15 04:29:08;;;;;;;17.00;9.17;;;;;;;;;;4919235;29;20251;-91
2022/01/15 04:31:46;;;;;;;10.43;7.50;;;;;;;;;;4917978;29;20692;-90
2022/01/15 04:34:15;;;;;;;11.50;6.83;;;;;;;;;;4919012;29;20207;-90
2022/01/15 04:36:44;;;;;;;10.73;7.60;;;;;;;;;;4918729;29;20582;-90
2022/01/15 04:39:11;;;;;;;12.00;7.67;;;;;;;;;;4919482;29;20571;-90
2022/01/15 04:41:38;;;;;;;12.20;7.90;;;;;;;;;;4910619;29;20636;-90
2022/01/15 04:44:06;;;;;;;11.13;7.53;;;;;;;;;;4918761;29;20278;-90
2022/01/15 04:46:34;;;;;;;11.37;7.67;;;;;;;;;;4918941;29;20660;-91
2022/01/15 04:49:02;;;;;;;13.47;8.37;;;;;;;;;;4917845;29;20259;-90
2022/01/15 04:51:29;;;;;;;12.10;7.53;;;;;;;;;;4915104;29;20226;-90
2022/01/15 04:53:58;;;;;;;10.90;6.20;;;;;;;;;;4918812;29;20234;-90
2022/01/15 04:56:26;;;;;;;11.87;6.87;;;;;;;;;;4918732;29;20214;-90
2022/01/15 04:58:53;;;;;;;11.63;8.23;;;;;;;;;;4916630;29;20226;-90
2022/01/15 05:01:20;;;;;;;12.87;8.13;;;;;;;;;;4918436;29;20203;-90
2022/01/15 05:03:48;;;;;;;10.43;7.57;;;;;;;;;;4918601;29;20211;-90
2022/01/15 05:06:15;;;;;;;13.70;7.17;;;;;;;;;;4907196;29;20275;-90
2022/01/15 05:08:45;;;;;;;11.17;7.67;;;;;;;;;;4913107;29;20301;-90
2022/01/15 05:11:20;;;;;;;12.90;7.90;;;;;;;;;;4918360;29;20598;-90
2022/01/15 05:13:49;;;;;;;13.33;7.73;;;;;;;;;;4918287;29;20293;-90
2022/01/15 05:16:17;;;;;;;10.40;7.03;;;;;;;;;;4917065;29;20215;-90
2022/01/15 05:18:44;;;;;;;9.57;6.53;;;;;;;;;;4914540;29;20703;-90
2022/01/15 05:21:11;;;;;;;11.20;7.20;;;;;;;;;;4918097;29;20274;-90
2022/01/15 05:23:39;;;;;;;10.97;7.17;;;;;;;;;;4915339;29;20226;-90
2022/01/15 05:26:06;;;;;;;10.63;6.57;;;;;;;;;;4915980;29;20724;-90
2022/01/15 05:28:35;;;;;;;9.27;6.87;;;;;;;;;;4918389;29;20222;-90
2022/01/15 05:31:02;;;;;;;10.47;6.77;;;;;;;;;;4917975;29;20569;-90
2022/01/15 05:33:29;;;;;;;12.80;7.93;;;;;;;;;;4912377;29;20634;-90
2022/01/15 05:35:57;;;;;;;10.27;7.07;;;;;;;;;;4911544;29;20210;-90
2022/01/15 05:38:24;;;;;;;10.90;6.60;;;;;;;;;;4918240;29;20227;-90
2022/01/15 05:40:51;;;;;;;12.97;7.73;;;;;;;;;;4909559;29;20212;-89
2022/01/15 05:43:18;;;;;;;12.53;8.50;;;;;;;;;;4910764;29;20211;-90
2022/01/15 05:45:47;;;;;;;12.77;8.50;;;;;;;;;;4917542;29;20262;-90
2022/01/15 05:48:15;;;;;;;10.80;6.93;;;;;;;;;;4899209;29;20294;-90
2022/01/15 05:50:42;;;;;;;9.63;6.50;;;;;;;;;;4906058;29;20749;-90
2022/01/15 05:53:09;;;;;;;11.90;7.10;;;;;;;;;;4917200;29;20219;-89
2022/01/15 05:55:37;;;;;;;12.87;7.80;;;;;;;;;;4918149;29;20206;-90
2022/01/15 05:58:06;;;;;;;13.33;8.40;;;;;;;;;;4909175;29;20280;-90
2022/01/15 06:00:33;;;;;;;9.97;7.37;;;;;;;;;;4912440;29;20633;-90
2022/01/15 06:03:02;;;;;;;10.50;5.87;;;;;;;;;;4917784;29;20211;-90
2022/01/15 06:05:30;;;;;;;10.90;7.20;;;;;;;;;;4918228;29;20238;-89
2022/01/15 06:07:57;;;;;;;10.13;6.70;;;;;;;;;;4909514;29;20283;-90
2022/01/15 06:10:24;;;;;;;9.97;6.23;;;;;;;;;;4912900;29;20210;-91
2022/01/15 06:12:52;;;;;;;11.47;7.67;;;;;;;;;;4917331;29;20237;-90
2022/01/15 06:15:19;;;;;;;10.23;6.03;;;;;;;;;;4915218;29;20724;-90
2022/01/15 06:17:46;;;;;;;12.83;8.30;;;;;;;;;;4907863;29;20226;-90
2022/01/15 06:20:16;;;;;;;12.33;8.03;;;;;;;;;;4909627;29;20214;-90
2022/01/15 06:22:43;;;;;;;14.50;7.97;;;;;;;;;;4912817;29;20203;-91
2022/01/15 06:25:11;;;;;;;16.27;8.67;;;;;;;;;;4916093;29;20238;-89
2022/01/15 06:27:38;;;;;;;10.60;7.60;;;;;;;;;;4916009;29;20448;-88
2022/01/15 06:30:07;;;;;;;14.67;8.17;;;;;;;;;;4900737;29;20693;-89
2022/01/15 06:32:36;;;;;;;11.53;7.47;;;;;;;;;;4910511;29;20302;-89
2022/01/15 06:35:04;;;;;;;10.43;6.40;;;;;;;;;;4909325;29;20215;-88
2022/01/15 06:37:33;;;;;;;12.03;6.80;;;;;;;;;;4916988;29;20664;-89
2022/01/15 06:40:00;;;;;;;12.83;8.03;;;;;;;;;;4911983;29;20211;-88
2022/01/15 06:42:29;;;;;;;11.67;7.37;;;;;;;;;;4915154;29;20266;-88
2022/01/15 06:44:56;;;;;;;12.43;7.50;;;;;;;;;;4916514;29;20257;-89
2022/01/15 06:47:23;;;;;;;11.00;7.40;;;;;;;;;;4911925;29;20250;-88
2022/01/15 06:49:51;;;;;;;15.97;8.97;;;;;;;;;;4907033;29;20736;-89
2022/01/15 06:52:20;;;;;;;11.23;7.10;;;;;;;;;;4916706;29;20298;-88
2022/01/15 06:54:49;;;;;;;13.90;6.53;;;;;;;;;;4925690;29;20214;-88
2022/01/15 06:57:16;;;;;;;11.90;7.53;;;;;;;;;;4913374;29;20230;-89
2022/01/15 06:59:44;;;;;;;13.63;7.67;;;;;;;;;;4916250;29;20648;-89
2022/01/15 07:02:12;;;;;;;10.63;6.67;;;;;;;;;;4916582;29;20203;-89
2022/01/15 07:04:43;;;;;;;11.63;7.17;;;;;;;;;;4918139;29;20633;-88
2022/01/15 07:07:11;;;;;;;16.87;8.67;;;;;;;;;;4910773;29;20222;-88
2022/01/15 07:09:38;;;;;;;10.57;7.63;;;;;;;;;;4911987;29;20230;-89
2022/01/15 07:12:07;;;;;;;11.40;7.00;;;;;;;;;;4915805;29;20627;-89
2022/01/15 07:14:35;;;;;;;12.47;7.73;;;;;;;;;;4915278;29;20222;-91
2022/01/15 07:17:02;;;;;;;9.73;7.00;;;;;;;;;;4914085;29;20646;-88
2022/01/15 07:19:31;;;;;;;20.40;8.67;;;;;;;;;;4916093;29;20211;-89
2022/01/15 07:21:58;;;;;;;11.23;7.77;;;;;;;;;;4916706;29;20214;-89
2022/01/15 07:24:25;;;;;;;8.97;6.67;;;;;;;;;;4913909;29;20286;-88
2022/01/15 07:26:53;;;;;;;14.70;7.23;;;;;;;;;;4915358;29;20222;-89
2022/01/15 07:29:23;;;;;;;14.27;7.97;;;;;;;;;;4916019;29;20617;-88
2022/01/15 07:31:51;;;;;;;11.13;6.60;;;;;;;;;;4916202;29;20253;-88
2022/01/15 07:34:19;;;;;;;11.17;8.17;;;;;;;;;;4909437;29;20206;-88
2022/01/15 07:36:48;;;;;;;15.10;7.30;;;;;;;;;;4913481;29;20618;-88
2022/01/15 07:39:15;;;;;;;10.13;7.40;;;;;;;;;;4916106;29;20210;-88
2022/01/15 07:41:43;;;;;;;12.57;7.97;;;;;;;;;;4916432;29;20211;-88
2022/01/15 07:44:11;;;;;;;11.33;6.93;;;;;;;;;;4909231;29;20210;-88
2022/01/15 07:46:39;;;;;;;12.73;7.50;;;;;;;;;;4916115;29;20269;-89
2022/01/15 07:49:07;;;;;;;11.43;6.37;;;;;;;;;;4916132;29;20235;-88
2022/01/15 07:51:34;;;;;;;10.23;7.00;;;;;;;;;;4908943;29;20246;-88
2022/01/15 07:54:02;;;;;;;11.33;8.33;;;;;;;;;;4909640;29;20215;-89
2022/01/15 07:56:29;;;;;;;11.93;7.33;;;;;;;;;;4915490;29;20278;-88
2022/01/15 07:58:56;;;;;;;10.07;7.53;;;;;;;;;;4915891;29;20234;-89
2022/01/15 08:01:24;;;;;;;11.07;7.07;;;;;;;;;;4910103;29;20210;-89
2022/01/15 08:03:53;;;;;;;11.43;7.80;;;;;;;;;;4915555;29;20218;-90
2022/01/15 08:06:20;;;;;;;14.13;8.07;;;;;;;;;;4915685;29;20214;-89
2022/01/15 08:08:47;;;;;;;12.50;7.43;;;;;;;;;;4914308;29;20235;-89
2022/01/15 08:11:24;;;;;;;10.27;7.43;;;;;;;;;;4908069;29;20270;-88
2022/01/15 08:13:51;;;;;;;14.13;8.60;;;;;;;;;;4912698;29;20261;-89
2022/01/15 08:16:19;;;;;;;11.57;7.33;;;;;;;;;;4915260;29;20660;-90
2022/01/15 08:19:05;;;;;;;12.60;7.43;;;;;;;;;;4913104;29;20230;-89
2022/01/15 08:21:33;;;;;;;13.07;7.93;;;;;;;;;;4915407;29;20198;-89
2022/01/15 08:24:01;;;;;;;13.13;7.87;;;;;;;;;;4915916;29;20279;-89
2022/01/15 08:26:28;;;;;;;13.90;8.87;;;;;;;;;;4910746;29;20203;-89
2022/01/15 08:28:56;;;;;;;15.97;8.10;;;;;;;;;;4909086;29;20612;-89
2022/01/15 08:31:23;;;;;;;13.93;8.93;;;;;;;;;;4915612;29;20281;-90
2022/01/15 08:33:51;;;;;;;15.47;8.77;;;;;;;;;;4908787;29;20287;-89
2022/01/15 08:36:18;;;;;;;14.47;8.57;;;;;;;;;;4914841;29;20206;-89
2022/01/15 08:38:47;;;;;;;16.07;9.17;;;;;;;;;;4915805;29;20246;-88
2022/01/15 08:41:14;;;;;;;14.93;8.90;;;;;;;;;;4912187;29;20287;-89
2022/01/15 08:43:42;;;;;;;15.37;8.40;;;;;;;;;;4906482;29;20239;-88
2022/01/15 08:46:11;;;;;;;17.07;8.90;;;;;;;;;;4914917;29;20229;-88
2022/01/15 08:48:39;;;;;;;14.20;8.60;;;;;;;;;;4915308;29;20253;-89
2022/01/15 08:51:06;;;;;;;15.70;9.17;;;;;;;;;;4914401;29;20263;-87
2022/01/15 08:53:34;;;;;;;14.90;9.60;;;;;;;;;;4916210;29;20796;-87
2022/01/15 08:56:03;;;;;;;14.47;9.37;;;;;;;;;;4917570;29;20207;-87
2022/01/15 08:58:31;;;;;;;14.43;10.20;;;;;;;;;;4918787;29;20692;-88
2022/01/15 09:00:58;;;;;;;15.07;9.93;;;;;;;;;;4908206;29;20211;-87
2022/01/15 09:03:26;;;;;;;17.10;9.67;;;;;;;;;;4918628;29;20203;-87
2022/01/15 09:05:53;;;;;;;17.07;11.37;;;;;;;;;;4913620;29;20731;-87
2022/01/15 09:08:27;;;;;;;14.63;9.97;;;;;;;;;;4912153;29;20238;-87
2022/01/15 09:10:54;;;;;;;16.57;10.27;;;;;;;;;;4917075;29;20218;-87
2022/01/15 09:13:23;;;;;;;14.70;10.50;;;;;;;;;;4925727;29;20229;-87
2022/01/15 09:15:51;;;;;;;13.50;10.10;;;;;;;;;;4910544;29;20223;-87
2022/01/15 09:18:37;;;;;;;16.07;9.67;;;;;;;;;;4925281;29;20226;-87
2022/01/15 09:21:05;;;;;;;12.37;8.57;;;;;;;;;;4925633;29;20242;-87
2022/01/15 09:23:32;;;;;;;12.67;9.03;;;;;;;;;;4908404;29;20277;-89
2022/01/15 09:25:59;;;;;;;13.97;8.97;;;;;;;;;;4918997;29;20222;-87
2022/01/15 09:31:13;;;;;;;11.37;8.80;;;;;;;;;;4918354;29;20214;-87
2022/01/15 09:33:41;;;;;;;12.90;9.33;;;;;;;;;;4916618;29;20277;-88
2022/01/15 09:36:08;;;;;;;12.53;9.00;;;;;;;;;;4917757;29;20299;-87
2022/01/15 09:38:36;;;;;;;14.63;9.70;;;;;;;;;;4914746;29;20291;-87
2022/01/15 09:41:03;;;;;;;13.80;8.80;;;;;;;;;;4908781;29;20238;-87
2022/01/15 09:43:32;;;;;;;15.10;10.17;;;;;;;;;;4917755;29;20206;-88
2022/01/15 09:46:00;;;;;;;15.23;9.63;;;;;;;;;;4918299;29;20282;-87
2022/01/15 09:48:28;;;;;;;13.57;8.87;;;;;;;;;;4912834;29;20237;-88
2022/01/15 09:50:55;;;;;;;12.10;8.80;;;;;;;;;;4917433;29;20252;-88
2022/01/15 09:53:22;;;;;;;12.60;8.13;;;;;;;;;;4917746;29;20312;-87
2022/01/15 09:55:50;;;;;;;12.43;9.00;;;;;;;;;;4917151;29;20220;-87
2022/01/15 09:58:18;;;;;;;10.83;8.43;;;;;;;;;;4912353;29;20230;-87
2022/01/15 10:00:47;;;;;;;12.10;8.07;;;;;;;;;;4917199;29;20270;-87
2022/01/15 10:03:14;;;;;;;12.60;8.57;;;;;;;;;;4914369;29;20206;-90
2022/01/15 10:05:42;;;;;;;14.83;10.00;;;;;;;;;;4915945;29;20264;-88
2022/01/15 10:08:12;;;;;;;15.23;10.00;;;;;;;;;;4915415;29;20235;-87
2022/01/15 10:10:40;;;;;;;16.07;10.23;;;;;;;;;;4917567;29;20211;-87
2022/01/15 10:13:15;;;;;;;11.77;8.80;;;;;;;;;;4912067;29;20273;-87
2022/01/15 10:15:43;;;;;;;12.97;9.27;;;;;;;;;;4912213;29;20241;-88
2022/01/15 10:18:22;;;;;;;16.33;9.20;;;;;;;;;;4909794;29;20239;-88
2022/01/15 10:20:52;;;;;;;13.73;9.80;;;;;;;;;;4907289;29;20214;-89
2022/01/15 10:23:20;;;;;;;15.23;10.40;;;;;;;;;;4910981;29;20640;-88
2022/01/15 10:26:07;;;;;;;14.90;10.03;;;;;;;;;;4910898;29;20207;-89
2022/01/15 10:28:48;;;;;;;14.40;9.87;;;;;;;;;;4909300;29;20231;-88
2022/01/15 10:31:18;;;;;;;14.07;9.93;;;;;;;;;;4903023;29;20237;-89
2022/01/15 10:34:25;;;;;;;15.13;10.50;;;;;;;;;;4910773;29;20763;-88
2022/01/15 10:36:52;;;;;;;17.07;11.03;;;;;;;;;;4916770;29;20218;-88
2022/01/15 10:39:21;;;;;;;14.90;11.27;;;;;;;;;;4915707;29;20202;-88
2022/01/15 10:41:48;;;;;;;18.83;11.40;;;;;;;;;;4920304;29;20210;-88
2022/01/15 10:44:29;;;;;;;20.00;11.87;;;;;;;;;;4920416;29;20207;-89
2022/01/15 10:47:02;;;;;;;17.10;11.70;;;;;;;;;;4910233;29;20234;-90
2022/01/15 10:49:30;;;;;;;17.83;11.33;;;;;;;;;;4905452;29;20724;-88
2022/01/15 10:52:12;;;;;;;15.47;10.67;;;;;;;;;;4916987;29;20236;-88
2022/01/15 10:54:58;;;;;;;15.30;10.73;;;;;;;;;;4917863;29;20276;-88
2022/01/15 10:57:26;;;;;;;17.80;10.13;;;;;;;;;;4905541;29;20269;-88
2022/01/15 10:59:57;;;;;;;16.73;10.77;;;;;;;;;;4911868;29;20206;-89
2022/01/15 11:02:24;;;;;;;16.50;11.40;;;;;;;;;;4921363;29;20210;-89
2022/01/15 11:04:54;;;;;;;18.33;10.83;;;;;;;;;;4915388;29;20238;-88
2022/01/15 11:07:22;;;;;;;18.13;10.83;;;;;;;;;;4909310;29;20227;-88
2022/01/15 11:09:53;;;;;;;17.77;10.73;;;;;;;;;;4917308;29;20203;-89
2022/01/15 11:12:20;;;;;;;16.97;11.20;;;;;;;;;;4914289;29;20211;-88
2022/01/15 11:14:48;;;;;;;18.07;12.63;;;;;;;;;;4904613;29;20211;-88
2022/01/15 11:17:15;;;;;;;16.67;11.53;;;;;;;;;;4907236;29;20234;-88
2022/01/15 11:19:45;;;;;;;18.50;12.37;;;;;;;;;;4908363;29;20274;-89
2022/01/15 11:22:21;;;;;;;21.90;12.27;;;;;;;;;;4909270;29;20218;-88
2022/01/15 11:24:48;;;;;;;19.30;12.73;;;;;;;;;;4911701;29;20230;-88
2022/01/15 11:27:17;;;;;;;19.43;12.90;;;;;;;;;;4906435;29;20642;-88
2022/01/15 11:29:45;;;;;;;19.27;12.27;;;;;;;;;;4899094;29;20668;-88
2022/01/15 11:32:13;;;;;;;18.93;12.70;;;;;;;;;;4899121;29;20230;-88
2022/01/15 11:34:42;;;;;;;20.80;13.33;;;;;;;;;;4914750;29;20270;-89
2022/01/15 11:37:20;;;;;;;22.33;13.77;;;;;;;;;;4915219;29;20704;-88
2022/01/15 11:39:52;;;;;;;25.27;13.80;;;;;;;;;;4911607;29;20210;-88
2022/01/15 11:42:26;;;;;;;24.27;15.53;;;;;;;;;;4902848;29;20207;-88
2022/01/15 11:44:53;;;;;;;24.40;15.90;;;;;;;;;;4915429;29;20202;-88
2022/01/15 11:47:25;;;;;;;26.93;16.23;;;;;;;;;;4905586;29;20463;-89
2022/01/15 11:49:53;;;;;;;28.67;16.03;;;;;;;;;;4910421;29;20211;-88
2022/01/15 11:52:35;;;;;;;25.70;15.43;;;;;;;;;;4909984;29;20214;-89
2022/01/15 11:55:26;;;;;;;28.60;16.87;;;;;;;;;;4913925;29;20289;-89
2022/01/15 11:58:00;;;;;;;31.07;16.00;;;;;;;;;;4907391;29;20296;-88
2022/01/15 12:00:29;;;;;;;29.97;17.57;;;;;;;;;;4909659;29;20201;-88
2022/01/15 12:02:58;;;;;;;31.00;17.70;;;;;;;;;;4916345;29;20203;-89
2022/01/15 12:05:30;;;;;;;29.13;16.93;;;;;;;;;;4921645;29;20211;-89
2022/01/15 12:08:15;;;;;;;29.53;17.00;;;;;;;;;;4914112;29;20315;-88
2022/01/15 12:10:45;;;;;;;27.63;15.60;;;;;;;;;;4902371;29;20214;-88
2022/01/15 12:13:15;;;;;;;29.73;16.57;;;;;;;;;;4915701;29;20230;-88
2022/01/15 12:15:42;;;;;;;29.70;16.17;;;;;;;;;;4916358;29;20215;-88
2022/01/15 12:18:16;;;;;;;26.83;15.67;;;;;;;;;;4907214;29;20294;-88
2022/01/15 12:20:43;;;;;;;31.03;16.10;;;;;;;;;;4907847;29;20238;-89
2022/01/15 12:23:27;;;;;;;24.93;14.97;;;;;;;;;;4916604;29;20704;-88
2022/01/15 12:25:57;;;;;;;28.63;14.60;;;;;;;;;;4913254;29;20210;-88
2022/01/15 12:28:27;;;;;;;24.47;14.40;;;;;;;;;;4908089;29;20230;-88
2022/01/15 12:30:58;;;;;;;25.57;13.07;;;;;;;;;;4919335;29;20211;-88
2022/01/15 12:33:25;;;;;;;25.67;13.17;;;;;;;;;;4919450;29;20234;-88
2022/01/15 12:35:55;;;;;;;23.90;13.60;;;;;;;;;;4915427;29;20211;-88
2022/01/15 12:38:25;;;;;;;26.77;14.00;;;;;;;;;;4914367;29;20313;-88
2022/01/15 12:40:54;;;;;;;18.20;11.57;;;;;;;;;;4912780;29;20216;-88
2022/01/15 12:43:24;;;;;;;23.60;12.23;;;;;;;;;;4918848;29;20215;-88
2022/01/15 12:45:53;;;;;;;21.37;11.63;;;;;;;;;;4934552;29;20273;-88
2022/01/15 12:48:23;;;;;;;21.53;12.97;;;;;;;;;;4910797;29;20314;-89
2022/01/15 12:50:53;;;;;;;23.47;12.53;;;;;;;;;;4925282;29;20211;-88
2022/01/15 12:53:21;;;;;;;21.17;11.57;;;;;;;;;;4903868;29;20286;-88
2022/01/15 12:55:50;;;;;;;24.80;11.80;;;;;;;;;;4913094;29;20624;-91
2022/01/15 12:58:19;;;;;;;20.20;11.20;;;;;;;;;;4919031;29;20234;-88
2022/01/15 13:00:48;;;;;;;18.30;11.13;;;;;;;;;;4919007;29;20262;-88
2022/01/15 13:03:17;;;;;;;20.10;11.30;;;;;;;;;;4919035;29;20207;-88
2022/01/15 13:05:45;;;;;;;19.40;11.17;;;;;;;;;;4912323;29;20278;-88
2022/01/15 13:08:14;;;;;;;18.83;11.67;;;;;;;;;;4915260;29;20242;-88
2022/01/15 13:10:50;;;;;;;17.47;10.47;;;;;;;;;;4906047;29;20728;-88
2022/01/15 13:13:19;;;;;;;17.77;11.53;;;;;;;;;;4911296;29;22116;-88
2022/01/15 13:15:48;;;;;;;16.83;11.87;;;;;;;;;;4917307;29;20284;-88
2022/01/15 13:18:17;;;;;;;20.07;11.27;;;;;;;;;;4923896;29;20233;-88
2022/01/15 13:20:45;;;;;;;19.70;11.90;;;;;;;;;;4919116;29;20214;-88
2022/01/15 13:23:12;;;;;;;21.40;14.77;;;;;;;;;;4901563;29;20219;-89
2022/01/15 13:25:39;;;;;;;23.67;13.13;;;;;;;;;;4903430;29;20262;-88
2022/01/15 13:28:07;;;;;;;23.73;12.67;;;;;;;;;;4908376;29;20235;-88
2022/01/15 13:30:34;;;;;;;21.77;12.53;;;;;;;;;;4918317;29;20222;-88
2022/01/15 13:33:04;;;;;;;20.30;13.00;;;;;;;;;;4917995;29;20278;-88
2022/01/15 13:35:33;;;;;;;21.83;12.63;;;;;;;;;;4912315;29;20219;-89
2022/01/15 13:38:01;;;;;;;22.30;13.07;;;;;;;;;;4911740;29;20637;-88
2022/01/15 13:40:29;;;;;;;23.57;14.27;;;;;;;;;;4908251;29;20218;-88
2022/01/15 13:42:57;;;;;;;21.23;12.50;;;;;;;;;;4915072;29;20613;-88
2022/01/15 13:45:28;;;;;;;21.67;13.70;;;;;;;;;;4916698;29;20298;-88
2022/01/15 13:47:55;;;;;;;21.60;12.87;;;;;;;;;;4907610;29;20700;-88
2022/01/15 13:53:12;;;;;;;21.33;13.00;;;;;;;;;;4911460;29;20580;-88
2022/01/15 13:55:40;;;;;;;22.73;13.67;;;;;;;;;;4899846;29;20732;-88
2022/01/15 13:58:11;;;;;;;20.07;13.43;;;;;;;;;;4909035;29;20238;-88
2022/01/15 14:00:39;;;;;;;21.53;13.50;;;;;;;;;;4912323;29;20266;-88
2022/01/15 14:03:07;;;;;;;20.47;12.93;;;;;;;;;;4916003;29;20207;-87
2022/01/15 14:05:36;;;;;;;20.03;12.63;;;;;;;;;;4919144;29;20214;-88
2022/01/15 14:08:10;;;;;;;19.83;13.70;;;;;;;;;;4915363;29;20659;-88
2022/01/15 14:10:40;;;;;;;21.70;12.70;;;;;;;;;;4922945;29;20312;-88
2022/01/15 14:13:08;;;;;;;23.80;13.93;;;;;;;;;;4918262;29;20221;-88
2022/01/15 14:15:37;;;;;;;20.93;12.90;;;;;;;;;;4916448;29;20227;-88
2022/01/15 14:18:11;;;;;;;24.20;15.10;;;;;;;;;;4915056;29;20246;-89
2022/01/15 14:20:51;;;;;;;23.47;14.33;;;;;;;;;;4907358;29;20215;-88
2022/01/15 14:23:28;;;;;;;21.57;13.40;;;;;;;;;;4911901;29;20234;-88
2022/01/15 14:25:56;;;;;;;16.90;11.63;;;;;;;;;;4917026;29;20281;-89
2022/01/15 14:28:24;;;;;;;25.43;15.60;;;;;;;;;;4908662;29;20222;-88
2022/01/15 14:30:54;;;;;;;24.03;14.67;;;;;;;;;;4913317;29;20218;-88
2022/01/15 14:33:21;;;;;;;24.10;13.70;;;;;;;;;;4916841;29;20626;-89
2022/01/15 14:35:50;;;;;;;20.00;13.03;;;;;;;;;;4916991;29;20230;-88
2022/01/15 14:38:18;;;;;;;22.40;14.10;;;;;;;;;;4916619;29;20258;-89
2022/01/15 14:40:45;;;;;;;25.47;12.27;;;;;;;;;;4915299;29;20211;-89
2022/01/15 14:43:13;;;;;;;20.77;13.10;;;;;;;;;;4924719;29;21235;-89
2022/01/15 14:45:42;;;;;;;20.80;12.53;;;;;;;;;;4920330;29;20266;-89
2022/01/15 14:48:09;;;;;;;19.30;11.70;;;;;;;;;;4908755;29;20704;-89
2022/01/15 14:50:36;;;;;;;24.00;12.83;;;;;;;;;;4911758;29;20231;-88
2022/01/15 14:53:07;;;;;;;23.23;12.93;;;;;;;;;;4916451;29;20225;-89
2022/01/15 14:55:34;;;;;;;21.97;11.30;;;;;;;;;;4910119;29;20222;-89
2022/01/15 14:58:16;;;;;;;24.23;12.70;;;;;;;;;;4912820;29;20290;-89